Main page
METAR-TAF:

METAR-TAF

Airports :

Lille Airport

Lille, France

latitude: 50-34N, longitude: 003-06E, elevation: 48 m

Current weather observation

The report was made 26 minutes ago, at 23:00 UTC
Wind 7 kt from the East/Northeast
Temperature 17°C
Humidity 42%
Pressure 1000 hPa
Visibility 10 km or more
no clouds below 1500 m and no cumulonimbus

METAR: LFQQ 222300Z AUTO 07007KT CAVOK 17/04 Q1000 NOSIG

Time: 01:26 (23:26 UTC)

Forecast

The report was made 6 hours and 26 minutes ago, at 17:00 UTC
Forecast valid from 22 at 18 UTC to 23 at 24 UTC
Wind 7 kt from the East/Northeast
Visibility 10 km or more
no clouds below 1500 m and no cumulonimbus
Probability 30% :
Temporary
from 23 at 20 UTC to 23 at 24 UTC
Broken clouds at a height of 7000 ft, Cumulonimbus.
thunderstorm, rain

TAF: LFQQ 221700Z 2218/2324 07007KT CAVOK PROB30 TEMPO 2320/2324 TSRA BKN070CB

Weather observations and forecasts of more than 4000 airports (METAR and TAF reports).

The available stations are represented by yellow and red dots on the map.

Hover mouse over dot to see the name of the station.

Then click to see weather observations and forecasts.

To change the map : click on the green buttons with a black cross to zoom in, on the green button with a dash to zoom out, or on the green arrows for adjacent maps.


METAR-TAF: